createdAt,value
2022-10-26T00:00:51.837Z,96.44
2022-10-26T00:03:19.140Z,96.80
2022-10-26T00:05:45.737Z,97.07
2022-10-26T00:08:13.294Z,97.84
2022-10-26T00:10:40.141Z,98.54
2022-10-26T00:13:10.178Z,99.30
2022-10-26T00:15:40.214Z,97.62
2022-10-26T00:18:06.592Z,98.45
2022-10-26T00:20:33.109Z,97.71
2022-10-26T00:22:59.499Z,96.28
2022-10-26T00:25:25.899Z,97.76
2022-10-26T00:27:52.735Z,97.04
2022-10-26T00:30:19.129Z,97.04
2022-10-26T00:32:45.528Z,97.18
2022-10-26T00:35:22.871Z,95.71
2022-10-26T00:37:55.039Z,94.39
2022-10-26T00:40:21.613Z,96.15
2022-10-26T00:42:48.138Z,96.71
2022-10-26T00:45:24.485Z,97.68
2022-10-26T00:47:52.741Z,97.72
2022-10-26T00:50:27.604Z,97.88
2022-10-26T00:52:55.024Z,96.56
2022-10-26T00:55:25.230Z,97.02
2022-10-26T00:57:53.343Z,97.00
2022-10-26T01:00:20.485Z,98.01
2022-10-26T01:02:50.819Z,98.58
2022-10-26T01:05:19.096Z,98.42
2022-10-26T01:07:47.827Z,98.49
2022-10-26T01:10:15.186Z,97.44
2022-10-26T01:12:42.283Z,97.54
2022-10-26T01:15:09.356Z,98.56
2022-10-26T01:17:54.443Z,96.65
2022-10-26T01:20:43.402Z,98.00
2022-10-26T01:23:34.071Z,96.89
2022-10-26T01:26:16.889Z,98.01
2022-10-26T01:29:04.921Z,97.04
2022-10-26T01:31:41.067Z,97.86
2022-10-26T01:34:15.971Z,97.89
2022-10-26T01:36:55.212Z,98.20
2022-10-26T01:39:52.439Z,98.62
2022-10-26T01:42:21.638Z,99.47
2022-10-26T01:44:53.355Z,99.87
2022-10-26T01:47:22.031Z,99.20
2022-10-26T01:49:53.391Z,97.49
2022-10-26T01:52:20.434Z,98.01
2022-10-26T01:54:46.863Z,97.23
2022-10-26T01:57:17.846Z,96.36
2022-10-26T02:00:10.500Z,98.11
2022-10-26T02:02:54.735Z,96.17
2022-10-26T02:05:36.749Z,97.91
2022-10-26T02:08:23.712Z,98.23
2022-10-26T02:11:10.010Z,98.27
2022-10-26T02:13:56.862Z,98.73
2022-10-26T02:16:58.119Z,98.73
2022-10-26T02:19:44.456Z,99.50
2022-10-26T02:22:26.149Z,100.00
2022-10-26T02:24:54.016Z,100.00
2022-10-26T02:27:24.687Z,100.00
2022-10-26T02:29:53.797Z,100.00
2022-10-26T02:32:22.158Z,100.00
2022-10-26T02:34:51.430Z,100.00
2022-10-26T02:37:21.270Z,100.00
2022-10-26T02:39:51.376Z,100.00
2022-10-26T02:42:18.927Z,100.00
2022-10-26T02:44:51.473Z,100.00
2022-10-26T02:47:19.491Z,100.00
2022-10-26T02:49:45.950Z,100.00
2022-10-26T02:52:18.380Z,100.00
2022-10-26T02:55:00.697Z,100.00
2022-10-26T02:57:34.114Z,100.00
2022-10-26T03:00:01.705Z,100.00
2022-10-26T03:02:30.087Z,100.00
2022-10-26T03:04:56.489Z,100.00
2022-10-26T03:07:23.895Z,100.00
2022-10-26T03:09:50.627Z,100.00
2022-10-26T03:12:17.623Z,100.00
2022-10-26T03:14:44.031Z,100.00
2022-10-26T03:17:10.429Z,100.00
2022-10-26T03:19:36.821Z,100.00
2022-10-26T03:22:03.223Z,100.00
2022-10-26T03:24:29.629Z,100.00
2022-10-26T03:26:58.273Z,100.00
2022-10-26T03:29:27.572Z,100.00
2022-10-26T03:31:55.238Z,100.00
2022-10-26T03:34:21.727Z,100.00
2022-10-26T03:36:48.311Z,100.00
2022-10-26T03:39:14.802Z,100.00
2022-10-26T03:41:41.258Z,100.00
2022-10-26T03:44:07.716Z,100.00
2022-10-26T03:46:34.093Z,100.00
2022-10-26T03:49:00.486Z,100.00
2022-10-26T03:51:28.028Z,100.00
2022-10-26T03:53:54.422Z,100.00
2022-10-26T03:56:20.808Z,100.00
2022-10-26T03:58:47.187Z,100.00
2022-10-26T04:01:13.627Z,100.00
2022-10-26T04:03:40.034Z,100.00
2022-10-26T04:06:06.422Z,100.00
2022-10-26T04:08:32.831Z,100.00
2022-10-26T04:11:02.360Z,100.00
2022-10-26T04:13:30.969Z,100.00
2022-10-26T04:15:57.516Z,100.00
2022-10-26T04:18:23.906Z,100.00
2022-10-26T04:20:50.310Z,100.00
2022-10-26T04:23:18.535Z,100.00
2022-10-26T04:25:45.324Z,100.00
2022-10-26T04:28:13.518Z,100.00
2022-10-26T04:30:40.552Z,100.00
2022-10-26T04:33:07.479Z,100.00
2022-10-26T04:35:33.950Z,100.00
2022-10-26T04:38:01.871Z,100.00
2022-10-26T04:40:29.341Z,100.00
2022-10-26T04:42:55.939Z,100.00
2022-10-26T04:45:22.578Z,100.00
2022-10-26T04:48:02.842Z,100.00
2022-10-26T04:50:29.318Z,100.00
2022-10-26T04:52:55.861Z,100.00
2022-10-26T04:55:22.399Z,100.00
2022-10-26T04:57:49.121Z,100.00
2022-10-26T05:00:15.895Z,100.00
2022-10-26T05:02:42.335Z,100.00
2022-10-26T05:05:11.350Z,100.00
2022-10-26T05:07:40.574Z,100.00
2022-10-26T05:10:07.626Z,100.00
2022-10-26T05:12:34.010Z,100.00
2022-10-26T05:15:02.943Z,100.00
2022-10-26T05:17:31.556Z,100.00
2022-10-26T05:20:00.197Z,100.00
2022-10-26T05:22:26.651Z,100.00
2022-10-26T05:24:53.095Z,100.00
2022-10-26T05:27:19.498Z,100.00
2022-10-26T05:29:45.891Z,100.00
2022-10-26T05:32:12.301Z,100.00
2022-10-26T05:34:40.845Z,100.00
2022-10-26T05:37:08.043Z,100.00
2022-10-26T05:39:34.427Z,100.00
2022-10-26T05:42:00.831Z,100.00
2022-10-26T05:44:27.395Z,100.00
2022-10-26T05:46:53.809Z,100.00
2022-10-26T05:49:20.223Z,100.00
2022-10-26T05:51:46.607Z,100.00
2022-10-26T05:54:14.001Z,100.00
2022-10-26T05:56:41.562Z,100.00
2022-10-26T05:59:13.767Z,100.00
2022-10-26T06:01:53.844Z,100.00
2022-10-26T06:04:31.513Z,100.00
2022-10-26T06:06:59.159Z,100.00
2022-10-26T06:09:26.051Z,100.00
2022-10-26T06:11:52.720Z,100.00
2022-10-26T06:14:19.313Z,100.00
2022-10-26T06:16:58.040Z,100.00
2022-10-26T06:19:43.968Z,100.00
2022-10-26T06:22:33.709Z,100.00
2022-10-26T06:25:12.684Z,100.00
2022-10-26T06:27:50.565Z,100.00
2022-10-26T06:30:23.389Z,100.00
2022-10-26T06:32:57.387Z,100.00
2022-10-26T06:35:41.598Z,100.00
2022-10-26T06:38:13.225Z,100.00
2022-10-26T06:40:42.433Z,100.00
2022-10-26T06:43:26.034Z,100.00
2022-10-26T06:46:11.427Z,100.00
2022-10-26T06:48:56.602Z,100.00
2022-10-26T06:51:24.897Z,100.00
2022-10-26T06:54:03.187Z,100.00
2022-10-26T06:56:29.778Z,100.00
2022-10-26T06:59:06.286Z,100.00
2022-10-26T07:01:33.586Z,100.00
2022-10-26T07:04:00.046Z,100.00
2022-10-26T07:06:26.465Z,100.00
2022-10-26T07:08:52.839Z,100.00
2022-10-26T07:11:19.228Z,100.00
2022-10-26T07:13:45.607Z,100.00
2022-10-26T07:16:12.031Z,100.00
2022-10-26T07:18:38.431Z,100.00
2022-10-26T07:21:04.893Z,100.00
2022-10-26T07:23:31.302Z,100.00
2022-10-26T07:26:00.060Z,100.00
2022-10-26T07:28:26.529Z,100.00
2022-10-26T07:30:56.209Z,100.00
2022-10-26T07:33:22.753Z,100.00
2022-10-26T07:35:49.283Z,100.00
2022-10-26T07:38:15.698Z,100.00
2022-10-26T07:40:42.094Z,100.00
2022-10-26T07:43:08.606Z,100.00
2022-10-26T07:45:36.673Z,100.00
2022-10-26T07:48:03.313Z,100.00
2022-10-26T07:50:29.716Z,100.00
2022-10-26T07:52:58.474Z,100.00
2022-10-26T07:55:24.923Z,100.00
2022-10-26T07:57:54.452Z,100.00
2022-10-26T08:00:21.869Z,100.00
2022-10-26T08:02:48.379Z,100.00
2022-10-26T08:05:14.817Z,100.00
2022-10-26T08:07:43.694Z,100.00
2022-10-26T08:10:15.873Z,100.00
2022-10-26T08:12:43.612Z,100.00
2022-10-26T08:15:10.206Z,100.00
2022-10-26T08:17:36.595Z,100.00
2022-10-26T08:20:03.299Z,100.00
2022-10-26T08:22:30.626Z,100.00
2022-10-26T08:24:57.256Z,100.00
2022-10-26T08:27:23.716Z,100.00
2022-10-26T08:29:50.116Z,100.00
2022-10-26T08:32:16.514Z,100.00
2022-10-26T08:34:42.891Z,100.00
2022-10-26T08:37:09.283Z,100.00
2022-10-26T08:39:35.666Z,100.00
2022-10-26T08:42:13.855Z,100.00
2022-10-26T08:44:47.011Z,100.00
2022-10-26T08:47:30.485Z,100.00
2022-10-26T08:50:01.931Z,100.00
2022-10-26T08:52:36.601Z,100.00
2022-10-26T08:55:07.357Z,100.00
2022-10-26T08:57:42.211Z,100.00
2022-10-26T09:00:15.611Z,100.00
2022-10-26T09:02:42.025Z,100.00
2022-10-26T09:05:16.589Z,100.00
2022-10-26T09:08:18.615Z,100.00
2022-10-26T09:11:08.181Z,100.00
2022-10-26T09:13:49.211Z,100.00
2022-10-26T09:16:23.720Z,100.00
2022-10-26T09:19:04.003Z,100.00
2022-10-26T09:21:33.075Z,100.00
2022-10-26T09:24:06.922Z,100.00
2022-10-26T09:26:54.779Z,100.00
2022-10-26T09:29:29.852Z,100.00
2022-10-26T09:32:00.103Z,100.00
2022-10-26T09:34:48.380Z,100.00
2022-10-26T09:37:19.918Z,100.00
2022-10-26T09:39:56.686Z,100.00
2022-10-26T09:42:31.759Z,100.00
2022-10-26T09:45:05.350Z,100.00
2022-10-26T09:47:36.988Z,100.00
2022-10-26T09:50:25.059Z,100.00
2022-10-26T09:52:51.818Z,100.00
2022-10-26T09:55:18.840Z,100.00
2022-10-26T09:57:47.684Z,100.00
2022-10-26T10:00:16.211Z,100.00
2022-10-26T10:02:44.970Z,100.00
2022-10-26T10:05:52.427Z,100.00
2022-10-26T10:08:23.135Z,100.00
2022-10-26T10:10:59.983Z,100.00
2022-10-26T10:13:29.083Z,100.00
2022-10-26T10:16:02.080Z,100.00
2022-10-26T10:18:28.704Z,100.00
2022-10-26T10:20:57.508Z,100.00
2022-10-26T10:23:30.235Z,100.00
2022-10-26T10:26:02.758Z,100.00
2022-10-26T10:28:29.666Z,100.00
2022-10-26T10:31:01.479Z,100.00
2022-10-26T10:33:40.366Z,100.00
2022-10-26T10:36:32.245Z,98.19
2022-10-26T10:38:59.864Z,98.46
2022-10-26T10:41:32.492Z,97.65
2022-10-26T10:44:07.770Z,96.95
2022-10-26T10:46:35.101Z,97.70
2022-10-26T10:49:04.567Z,97.10
2022-10-26T10:51:38.631Z,94.93
2022-10-26T10:54:06.843Z,95.55
2022-10-26T10:56:36.025Z,95.78
2022-10-26T10:59:33.725Z,93.40
2022-10-26T11:02:23.577Z,94.93
2022-10-26T11:05:07.947Z,93.32
2022-10-26T11:07:47.034Z,94.09
2022-10-26T11:10:17.712Z,93.87
2022-10-26T11:12:51.712Z,92.46
2022-10-26T11:15:22.479Z,92.69
2022-10-26T11:18:04.053Z,90.42
2022-10-26T11:20:33.512Z,90.34
2022-10-26T11:23:13.022Z,87.46
2022-10-26T11:25:50.113Z,88.48
2022-10-26T11:28:29.397Z,88.51
2022-10-26T11:31:02.721Z,87.80
2022-10-26T11:33:37.127Z,87.86
2022-10-26T11:36:09.294Z,85.95
2022-10-26T11:38:56.354Z,85.61
2022-10-26T11:41:34.974Z,85.33
2022-10-26T11:44:34.413Z,85.47
2022-10-26T11:47:12.136Z,85.34
2022-10-26T11:49:55.855Z,85.19
2022-10-26T11:52:34.380Z,84.71
2022-10-26T11:55:02.655Z,84.87
2022-10-26T11:57:33.943Z,83.96
2022-10-26T12:00:07.478Z,83.52
2022-10-26T12:05:42.344Z,84.09
2022-10-26T12:08:15.632Z,83.56
2022-10-26T12:10:48.987Z,81.90
2022-10-26T12:13:27.310Z,81.43
2022-10-26T12:16:04.822Z,81.52
2022-10-26T12:18:56.065Z,82.30
2022-10-26T12:21:31.413Z,81.00
2022-10-26T12:24:02.665Z,82.37
2022-10-26T12:26:28.982Z,81.41
2022-10-26T12:29:01.368Z,80.14
2022-10-26T12:31:37.069Z,80.15
2022-10-26T12:34:45.227Z,80.50
2022-10-26T12:37:28.524Z,79.98
2022-10-26T12:39:54.913Z,79.64
2022-10-26T12:42:30.026Z,79.21
2022-10-26T12:44:59.426Z,80.16
2022-10-26T12:47:28.786Z,79.73
2022-10-26T12:50:07.543Z,80.90
2022-10-26T12:52:56.491Z,79.93
2022-10-26T12:55:48.611Z,80.10
2022-10-26T12:58:22.550Z,79.61
2022-10-26T13:01:21.487Z,77.88
2022-10-26T13:04:14.805Z,77.63
2022-10-26T13:06:54.533Z,80.23
2022-10-26T13:09:24.193Z,78.06
2022-10-26T13:11:55.282Z,78.98
2022-10-26T13:14:25.690Z,81.02
2022-10-26T13:16:52.597Z,79.16
2022-10-26T13:19:30.866Z,80.38
2022-10-26T13:21:59.792Z,78.73
2022-10-26T13:24:30.295Z,79.25
2022-10-26T13:27:08.000Z,74.61
2022-10-26T13:30:03.280Z,76.50
2022-10-26T13:32:38.788Z,73.04
2022-10-26T13:35:10.805Z,72.20
2022-10-26T13:37:43.833Z,71.59
2022-10-26T13:40:18.290Z,69.93
2022-10-26T13:42:48.487Z,69.79
2022-10-26T13:45:21.507Z,70.82
2022-10-26T13:47:55.083Z,71.19
2022-10-26T13:50:27.662Z,69.85
2022-10-26T13:53:01.171Z,71.02
2022-10-26T13:55:50.457Z,71.13
2022-10-26T13:58:43.134Z,70.83
2022-10-26T14:01:09.924Z,71.47
2022-10-26T14:03:37.296Z,70.97
2022-10-26T14:06:06.563Z,71.39
2022-10-26T14:08:32.953Z,71.40
2022-10-26T14:10:59.819Z,71.43
2022-10-26T14:13:28.792Z,70.99
2022-10-26T14:15:57.235Z,71.60
2022-10-26T14:18:30.441Z,70.77
2022-10-26T14:21:01.690Z,72.71
2022-10-26T14:23:46.155Z,73.52
2022-10-26T14:26:24.612Z,71.44
2022-10-26T14:28:55.543Z,72.66
2022-10-26T14:31:26.653Z,71.66
2022-10-26T14:33:54.630Z,72.11
2022-10-26T14:36:26.526Z,72.72
2022-10-26T14:38:59.412Z,71.84
2022-10-26T14:41:27.124Z,73.03
2022-10-26T14:43:56.232Z,72.77
2022-10-26T14:46:22.824Z,73.49
2022-10-26T14:48:57.552Z,72.72
2022-10-26T14:51:28.862Z,73.80
2022-10-26T14:53:58.383Z,73.64
2022-10-26T14:56:31.778Z,74.37
2022-10-26T14:58:58.974Z,74.34
2022-10-26T15:01:30.269Z,74.83
2022-10-26T15:04:07.475Z,75.82
2022-10-26T15:06:42.685Z,76.46
2022-10-26T15:09:38.891Z,76.94
2022-10-26T15:12:06.404Z,77.45
2022-10-26T15:14:34.246Z,77.31
2022-10-26T15:17:00.809Z,77.69
2022-10-26T15:19:27.880Z,77.81
2022-10-26T15:21:54.770Z,78.01
2022-10-26T15:24:21.083Z,78.75
2022-10-26T15:26:48.055Z,78.70
2022-10-26T15:29:41.034Z,78.80
2022-10-26T15:32:19.071Z,79.43
2022-10-26T15:35:19.398Z,80.23
2022-10-26T15:37:46.688Z,81.48
2022-10-26T15:40:14.045Z,82.30
2022-10-26T15:42:41.636Z,82.99
2022-10-26T15:45:21.726Z,83.19
2022-10-26T15:47:49.032Z,83.51
2022-10-26T15:50:17.588Z,84.71
2022-10-26T15:52:46.676Z,84.55
2022-10-26T15:55:16.450Z,85.38
2022-10-26T15:57:43.196Z,86.22
2022-10-26T16:00:15.132Z,86.73
2022-10-26T16:02:42.637Z,86.46
2022-10-26T16:05:09.424Z,86.07
2022-10-26T16:07:35.790Z,88.03
2022-10-26T16:10:02.268Z,88.74
2022-10-26T16:12:28.653Z,88.67
2022-10-26T16:15:22.195Z,90.12
2022-10-26T16:17:49.582Z,90.16
2022-10-26T16:20:22.986Z,91.53
2022-10-26T16:22:51.905Z,91.42
2022-10-26T16:25:21.683Z,92.08
2022-10-26T16:27:49.569Z,92.86
2022-10-26T16:30:16.927Z,93.06
2022-10-26T16:32:43.550Z,93.59
2022-10-26T16:35:11.340Z,92.73
2022-10-26T16:37:38.122Z,92.35
2022-10-26T16:40:06.125Z,93.74
2022-10-26T16:42:32.766Z,94.60
2022-10-26T16:45:02.532Z,94.80
2022-10-26T16:47:29.475Z,94.86
2022-10-26T16:49:55.861Z,95.38
2022-10-26T16:52:22.267Z,95.53
2022-10-26T16:54:48.671Z,96.22
2022-10-26T16:57:15.486Z,94.88
2022-10-26T16:59:41.943Z,96.37
2022-10-26T17:02:09.935Z,94.63
2022-10-26T17:04:36.386Z,95.98
2022-10-26T17:07:02.765Z,96.18
2022-10-26T17:09:29.521Z,97.60
2022-10-26T17:12:00.953Z,98.16
2022-10-26T17:14:28.341Z,98.03
2022-10-26T17:16:54.743Z,98.69
2022-10-26T17:19:21.162Z,98.22
2022-10-26T17:21:47.554Z,98.45
2022-10-26T17:24:14.194Z,98.44
2022-10-26T17:26:41.107Z,98.50
2022-10-26T17:29:07.558Z,97.59
2022-10-26T17:31:33.951Z,97.72
2022-10-26T17:34:00.374Z,98.20
2022-10-26T17:36:27.264Z,98.67
2022-10-26T17:38:55.158Z,99.38
2022-10-26T17:41:22.535Z,99.90
2022-10-26T17:43:51.722Z,99.73
2022-10-26T17:46:20.792Z,99.78
2022-10-26T17:48:47.255Z,100.00
2022-10-26T17:51:16.107Z,99.88
2022-10-26T17:53:42.925Z,99.84
2022-10-26T17:56:16.163Z,100.00
2022-10-26T17:58:42.602Z,100.00
2022-10-26T18:01:11.341Z,100.00
2022-10-26T18:03:38.922Z,100.00
2022-10-26T18:06:09.431Z,100.00
2022-10-26T18:08:37.191Z,100.00
2022-10-26T18:11:04.967Z,100.00
2022-10-26T18:13:33.899Z,100.00
2022-10-26T18:16:07.907Z,100.00
2022-10-26T18:18:34.955Z,100.00
2022-10-26T18:21:06.798Z,100.00
2022-10-26T18:23:33.250Z,100.00
2022-10-26T18:26:02.679Z,100.00
2022-10-26T18:28:29.231Z,100.00
2022-10-26T18:31:00.933Z,100.00
2022-10-26T18:33:27.501Z,100.00
2022-10-26T18:35:53.889Z,100.00
2022-10-26T18:38:20.631Z,100.00
2022-10-26T18:40:53.222Z,100.00
2022-10-26T18:43:19.696Z,100.00
2022-10-26T18:45:47.859Z,100.00
2022-10-26T18:48:14.936Z,100.00
2022-10-26T18:50:41.720Z,100.00
2022-10-26T18:53:12.581Z,100.00
2022-10-26T18:55:41.926Z,100.00
2022-10-26T18:58:10.751Z,100.00
2022-10-26T19:00:38.845Z,100.00
2022-10-26T19:03:06.893Z,100.00
2022-10-26T19:05:34.990Z,100.00
2022-10-26T19:08:01.408Z,100.00
2022-10-26T19:10:27.831Z,100.00
2022-10-26T19:12:54.459Z,100.00
2022-10-26T19:15:21.357Z,100.00
2022-10-26T19:17:47.750Z,100.00
2022-10-26T19:20:14.182Z,100.00
2022-10-26T19:22:40.583Z,100.00
2022-10-26T19:25:07.615Z,100.00
2022-10-26T19:27:33.996Z,100.00
2022-10-26T19:30:00.530Z,100.00
2022-10-26T19:32:28.580Z,100.00
2022-10-26T19:34:54.999Z,100.00
2022-10-26T19:37:23.679Z,100.00
2022-10-26T19:39:54.353Z,100.00
2022-10-26T19:42:20.756Z,100.00
2022-10-26T19:44:47.145Z,100.00
2022-10-26T19:47:13.553Z,100.00
2022-10-26T19:49:39.960Z,100.00
2022-10-26T19:52:06.404Z,100.00
2022-10-26T19:54:32.834Z,100.00
2022-10-26T19:56:59.275Z,100.00
2022-10-26T19:59:26.724Z,100.00
2022-10-26T20:01:53.205Z,100.00
2022-10-26T20:04:19.705Z,100.00
2022-10-26T20:06:46.413Z,100.00
2022-10-26T20:09:12.851Z,100.00
2022-10-26T20:11:42.878Z,100.00
2022-10-26T20:14:09.907Z,100.00
2022-10-26T20:16:36.292Z,100.00
2022-10-26T20:19:02.720Z,100.00
2022-10-26T20:21:29.179Z,100.00
2022-10-26T20:23:55.585Z,100.00
2022-10-26T20:26:23.368Z,100.00
2022-10-26T20:28:51.658Z,100.00
2022-10-26T20:31:18.332Z,100.00
2022-10-26T20:33:44.741Z,100.00
2022-10-26T20:36:11.144Z,100.00
2022-10-26T20:38:39.051Z,100.00
2022-10-26T20:41:07.977Z,100.00
2022-10-26T20:43:41.162Z,100.00
2022-10-26T20:46:10.062Z,100.00
2022-10-26T20:48:38.592Z,100.00
2022-10-26T20:51:14.369Z,100.00
2022-10-26T20:53:50.167Z,100.00
2022-10-26T20:56:26.033Z,100.00
2022-10-26T20:58:57.645Z,100.00
2022-10-26T21:01:27.327Z,100.00
2022-10-26T21:03:55.466Z,100.00
2022-10-26T21:06:22.768Z,100.00
2022-10-26T21:08:50.751Z,100.00
2022-10-26T21:11:18.061Z,100.00
2022-10-26T21:13:46.654Z,100.00
2022-10-26T21:16:13.545Z,100.00
2022-10-26T21:18:40.157Z,100.00
2022-10-26T21:21:06.790Z,100.00
2022-10-26T21:23:36.637Z,100.00
2022-10-26T21:26:04.013Z,100.00
2022-10-26T21:28:47.335Z,100.00
2022-10-26T21:31:16.317Z,100.00
2022-10-26T21:33:43.306Z,100.00
2022-10-26T21:36:12.231Z,100.00
2022-10-26T21:38:40.075Z,100.00
2022-10-26T21:41:11.689Z,100.00
2022-10-26T21:43:40.016Z,100.00
2022-10-26T21:46:07.153Z,100.00
2022-10-26T21:48:34.653Z,100.00
2022-10-26T21:51:11.274Z,99.55
2022-10-26T21:53:37.659Z,99.26
2022-10-26T21:56:09.744Z,99.13
2022-10-26T21:58:36.752Z,98.74
2022-10-26T22:01:06.494Z,98.70
2022-10-26T22:03:33.255Z,100.00
2022-10-26T22:05:59.770Z,100.00
2022-10-26T22:08:26.225Z,99.78
2022-10-26T22:10:52.668Z,100.00
2022-10-26T22:13:19.061Z,100.00
2022-10-26T22:15:45.581Z,100.00
2022-10-26T22:18:11.969Z,100.00
2022-10-26T22:20:38.404Z,100.00
2022-10-26T22:25:36.107Z,100.00
2022-10-26T22:28:02.503Z,100.00
2022-10-26T22:30:28.890Z,100.00
2022-10-26T22:32:55.295Z,100.00
2022-10-26T22:35:29.384Z,100.00
2022-10-26T22:37:57.100Z,100.00
2022-10-26T22:40:23.499Z,100.00
2022-10-26T22:42:53.499Z,100.00
2022-10-26T22:45:20.048Z,100.00
2022-10-26T22:47:46.443Z,100.00
2022-10-26T22:50:12.817Z,100.00
2022-10-26T22:52:39.208Z,100.00
2022-10-26T22:55:05.933Z,100.00
2022-10-26T22:57:32.325Z,100.00
2022-10-26T22:59:58.717Z,100.00
2022-10-26T23:02:25.196Z,100.00
2022-10-26T23:04:51.600Z,100.00
2022-10-26T23:07:17.986Z,100.00
2022-10-26T23:09:44.358Z,100.00
2022-10-26T23:12:10.748Z,100.00
2022-10-26T23:14:37.130Z,100.00
2022-10-26T23:17:03.838Z,100.00
2022-10-26T23:19:30.239Z,100.00
2022-10-26T23:21:56.627Z,99.83
2022-10-26T23:24:23.069Z,100.00
2022-10-26T23:26:49.457Z,100.00
2022-10-26T23:29:16.394Z,100.00
2022-10-26T23:31:42.771Z,98.66
2022-10-26T23:34:09.273Z,98.69
2022-10-26T23:36:35.659Z,99.62
2022-10-26T23:39:02.047Z,100.00
2022-10-26T23:41:28.907Z,100.00
2022-10-26T23:43:55.289Z,100.00
2022-10-26T23:46:21.698Z,100.00
2022-10-26T23:48:48.178Z,100.00
2022-10-26T23:51:14.564Z,100.00
2022-10-26T23:53:40.992Z,100.00
2022-10-26T23:56:07.739Z,100.00
2022-10-26T23:58:34.142Z,100.00
